createdAt,value
2023-08-23T00:04:42.852Z,100059.13
2023-08-23T00:09:48.606Z,100056.53
2023-08-23T00:14:55.218Z,100064.47
2023-08-23T00:20:01.486Z,100069.97
2023-08-23T00:25:06.811Z,100086.25
2023-08-23T00:30:11.953Z,100056.94
2023-08-23T00:35:18.083Z,100043.25
2023-08-23T00:40:23.416Z,100040.94
2023-08-23T00:45:34.262Z,100054.81
2023-08-23T00:50:39.931Z,100054.38
2023-08-23T00:55:45.966Z,100062.28
2023-08-23T01:00:52.144Z,100040.16
2023-08-23T01:06:06.773Z,100041.31
2023-08-23T01:11:28.238Z,100040.78
2023-08-23T01:16:36.130Z,100027.06
2023-08-23T01:21:43.689Z,100041.19
2023-08-23T01:26:48.469Z,100074.19
2023-08-23T01:32:05.088Z,100053.69
2023-08-23T01:37:15.170Z,100071.03
2023-08-23T01:42:20.416Z,100067.31
2023-08-23T01:47:25.409Z,100051.63
2023-08-23T01:52:30.068Z,100061.38
2023-08-23T01:57:34.845Z,100090.06
2023-08-23T02:02:41.309Z,100056.75
2023-08-23T02:07:48.140Z,100068.66
2023-08-23T02:12:54.125Z,100081.97
2023-08-23T02:17:59.029Z,100072.19
2023-08-23T02:23:03.630Z,100042.13
2023-08-23T02:28:08.538Z,100039.13
2023-08-23T02:33:13.405Z,100025.03
2023-08-23T02:38:20.305Z,100032.56
2023-08-23T02:43:27.293Z,100057.75
2023-08-23T02:48:32.775Z,100051.78
2023-08-23T02:53:37.827Z,100039.09
2023-08-23T02:58:44.404Z,100071.03
2023-08-23T03:03:51.434Z,100055.31
2023-08-23T03:08:58.420Z,100040.13
2023-08-23T03:14:03.335Z,100043.38
2023-08-23T03:19:08.318Z,100065.56
2023-08-23T03:24:14.042Z,100022.22
2023-08-23T03:29:20.650Z,100023.84
2023-08-23T03:34:27.641Z,100028.16
2023-08-23T03:39:33.782Z,100034.09
2023-08-23T03:44:39.954Z,100016.72
2023-08-23T03:49:46.343Z,100025.09
2023-08-23T03:54:51.399Z,100058.69
2023-08-23T03:59:56.537Z,100047.53
2023-08-23T04:05:03.827Z,100037.22
2023-08-23T04:10:11.213Z,100046.41
2023-08-23T04:15:15.668Z,100030.69
2023-08-23T04:20:21.492Z,100027.38
2023-08-23T04:25:27.280Z,100016.47
2023-08-23T04:30:33.054Z,100015.34
2023-08-23T04:35:40.896Z,100008.03
2023-08-23T04:40:47.640Z,100007.50
2023-08-23T04:45:55.339Z,100004.50
2023-08-23T04:51:01.425Z,100005.59
2023-08-23T04:56:07.418Z,99998.81
2023-08-23T05:01:12.692Z,100014.81
2023-08-23T05:06:22.919Z,99979.44
2023-08-23T05:11:30.658Z,99994.38
2023-08-23T05:16:36.496Z,99982.41
2023-08-23T05:21:42.157Z,99981.03
2023-08-23T05:26:47.242Z,99984.56
2023-08-23T05:31:52.616Z,99978.84
2023-08-23T05:36:57.808Z,99981.81
2023-08-23T05:42:07.474Z,99964.13
2023-08-23T05:47:12.720Z,99951.34
2023-08-23T05:52:17.453Z,99939.59
2023-08-23T05:57:23.697Z,99928.72
2023-08-23T06:02:29.721Z,99915.97
2023-08-23T06:07:35.127Z,99898.81
2023-08-23T06:12:41.568Z,99892.53
2023-08-23T06:17:47.012Z,99893.28
2023-08-23T06:22:53.674Z,99887.78
2023-08-23T06:27:59.371Z,99871.16
2023-08-23T06:33:04.244Z,99867.06
2023-08-23T06:38:09.457Z,99887.41
2023-08-23T06:43:23.107Z,99893.13
2023-08-23T06:48:29.360Z,99901.81
2023-08-23T06:53:36.850Z,99901.50
2023-08-23T06:58:42.963Z,99925.66
2023-08-23T07:03:48.277Z,99923.47
2023-08-23T07:08:54.689Z,99920.19
2023-08-23T07:13:59.685Z,99904.16
2023-08-23T07:19:09.208Z,99902.25
2023-08-23T07:24:14.315Z,99897.94
2023-08-23T07:29:20.321Z,99894.97
2023-08-23T07:34:25.299Z,99885.28
2023-08-23T07:39:30.221Z,99878.00
2023-08-23T07:44:37.140Z,99889.25
2023-08-23T07:49:42.192Z,99883.34
2023-08-23T07:54:47.170Z,99889.34
2023-08-23T07:59:52.291Z,99907.00
2023-08-23T08:04:59.109Z,99889.13
2023-08-23T08:10:04.081Z,99900.56
2023-08-23T08:15:11.434Z,99921.22
2023-08-23T08:20:17.657Z,99913.13
2023-08-23T08:25:22.672Z,99899.63
2023-08-23T08:30:26.922Z,99900.41
2023-08-23T08:35:31.938Z,99914.53
2023-08-23T08:40:39.640Z,99885.53
2023-08-23T08:45:46.415Z,99905.59
2023-08-23T08:50:52.512Z,99904.56
2023-08-23T08:55:59.995Z,99907.03
2023-08-23T09:01:07.434Z,99909.53
2023-08-23T09:06:13.406Z,99903.91
2023-08-23T09:11:19.153Z,99908.03
2023-08-23T09:16:29.794Z,99917.31
2023-08-23T09:21:38.436Z,99923.34
2023-08-23T09:26:43.946Z,99926.34
2023-08-23T09:31:48.924Z,99951.91
2023-08-23T09:36:56.063Z,99946.25
2023-08-23T09:42:10.267Z,99952.25
2023-08-23T09:47:21.585Z,99952.50
2023-08-23T09:52:32.383Z,99944.72
2023-08-23T09:57:38.759Z,99950.44
2023-08-23T10:02:44.783Z,99970.19
2023-08-23T10:07:50.093Z,99995.13
2023-08-23T10:12:59.089Z,99993.03
2023-08-23T10:18:07.277Z,99981.69
2023-08-23T10:23:15.355Z,99978.97
2023-08-23T10:28:20.969Z,99981.19
2023-08-23T10:33:26.453Z,99974.13
2023-08-23T10:38:31.492Z,99987.44
2023-08-23T10:43:36.999Z,100002.59
2023-08-23T10:48:42.544Z,100023.41
2023-08-23T10:53:47.771Z,100021.81
2023-08-23T10:58:54.425Z,100004.50
2023-08-23T11:03:59.805Z,100026.69
2023-08-23T11:09:06.308Z,100084.66
2023-08-23T11:14:11.442Z,100068.94
2023-08-23T11:19:16.898Z,100118.50
2023-08-23T11:24:22.142Z,100086.00
2023-08-23T11:29:27.786Z,100080.88
2023-08-23T11:34:32.260Z,100086.81
2023-08-23T11:39:37.285Z,100093.59
2023-08-23T11:44:43.996Z,100101.69
2023-08-23T11:49:53.287Z,100113.31
2023-08-23T11:54:58.238Z,100090.34
2023-08-23T12:00:03.636Z,100102.50
2023-08-23T12:05:13.558Z,100117.38
2023-08-23T12:10:18.613Z,100139.56
2023-08-23T12:15:23.389Z,100146.06
2023-08-23T12:20:28.367Z,100162.81
2023-08-23T12:25:33.335Z,100199.88
2023-08-23T12:30:38.466Z,100181.72
2023-08-23T12:35:45.664Z,100177.63
2023-08-23T12:40:50.720Z,100188.38
2023-08-23T12:45:57.421Z,100179.69
2023-08-23T12:51:03.431Z,100192.03
2023-08-23T12:56:10.244Z,100249.22
2023-08-23T13:01:17.234Z,100234.53
2023-08-23T13:06:22.897Z,100267.09
2023-08-23T13:11:29.614Z,100247.22
2023-08-23T13:16:34.616Z,100247.59
2023-08-23T13:21:39.625Z,100268.00
2023-08-23T13:26:44.717Z,100244.56
2023-08-23T13:31:49.918Z,100249.50
2023-08-23T13:36:54.962Z,100237.41
2023-08-23T13:42:00.481Z,100241.38
2023-08-23T13:47:05.567Z,100251.16
2023-08-23T13:52:11.778Z,100223.22
2023-08-23T13:57:16.719Z,100221.19
2023-08-23T14:02:21.731Z,100208.81
2023-08-23T14:07:28.544Z,100208.97
2023-08-23T14:12:33.631Z,100215.91
2023-08-23T14:17:39.797Z,100223.50
2023-08-23T14:22:48.090Z,100213.56
2023-08-23T14:27:55.903Z,100210.28
2023-08-23T14:33:00.735Z,100257.38
2023-08-23T14:38:05.998Z,100251.59
2023-08-23T14:43:11.025Z,100232.72
2023-08-23T14:48:16.169Z,100241.91
2023-08-23T14:53:21.050Z,100240.16
2023-08-23T14:58:26.139Z,100250.63
2023-08-23T15:03:38.053Z,100280.97
2023-08-23T15:08:43.076Z,100264.31
2023-08-23T15:13:52.970Z,100260.09
2023-08-23T15:18:59.621Z,100254.94
2023-08-23T15:24:05.118Z,100246.78
2023-08-23T15:29:12.223Z,100236.38
2023-08-23T15:34:17.208Z,100232.03
2023-08-23T15:39:26.297Z,100225.84
2023-08-23T15:44:31.099Z,100229.69
2023-08-23T15:49:36.580Z,100229.22
2023-08-23T15:54:41.766Z,100298.44
2023-08-23T15:59:46.720Z,100262.03
2023-08-23T16:04:53.004Z,100281.91
2023-08-23T16:09:57.888Z,100265.19
2023-08-23T16:15:03.051Z,100260.38
2023-08-23T16:20:09.137Z,100288.59
2023-08-23T16:25:15.377Z,100267.56
2023-08-23T16:30:24.658Z,100291.94
2023-08-23T16:35:31.349Z,100274.03
2023-08-23T16:40:38.255Z,100282.72
2023-08-23T16:45:43.743Z,100298.88
2023-08-23T16:50:50.463Z,100306.34
2023-08-23T16:55:55.493Z,100332.47
2023-08-23T17:01:00.358Z,100302.50
2023-08-23T17:06:05.360Z,100302.50
2023-08-23T17:11:10.333Z,100298.69
2023-08-23T17:16:16.593Z,100293.78
2023-08-23T17:21:22.860Z,100306.41
2023-08-23T17:26:27.555Z,100309.91
2023-08-23T17:31:32.432Z,100306.19
2023-08-23T17:36:37.441Z,100320.69
2023-08-23T17:41:42.819Z,100326.53
2023-08-23T17:46:49.594Z,100277.03
2023-08-23T17:51:54.766Z,100305.25
2023-08-23T17:57:00.983Z,100327.84
2023-08-23T18:02:05.976Z,100344.13
2023-08-23T18:07:14.191Z,100329.28
2023-08-23T18:12:19.426Z,100333.84
2023-08-23T18:17:24.468Z,100325.66
2023-08-23T18:22:29.443Z,100346.16
2023-08-23T18:27:34.378Z,100354.22
2023-08-23T18:32:40.217Z,100324.03
2023-08-23T18:37:45.059Z,100311.63
2023-08-23T18:42:51.183Z,100312.50
2023-08-23T18:47:56.591Z,100299.97
2023-08-23T18:53:01.671Z,100269.91
2023-08-23T18:58:06.952Z,100259.53
2023-08-23T19:03:14.669Z,100282.44
2023-08-23T19:08:22.223Z,100317.66
2023-08-23T19:13:27.528Z,100319.28
2023-08-23T19:18:32.603Z,100312.03
2023-08-23T19:23:37.740Z,100330.03
2023-08-23T19:28:42.853Z,100289.69
2023-08-23T19:33:47.854Z,100326.53
2023-08-23T19:38:53.220Z,100271.94
2023-08-23T19:43:58.425Z,100291.56
2023-08-23T19:49:03.555Z,100306.09
2023-08-23T19:54:08.671Z,100302.53
2023-08-23T19:59:13.826Z,100299.72
2023-08-23T20:04:18.915Z,100295.78
2023-08-23T20:09:23.941Z,100293.56
2023-08-23T20:14:33.551Z,100298.34
2023-08-23T20:19:39.014Z,100294.50
2023-08-23T20:24:44.377Z,100317.19
2023-08-23T20:29:51.642Z,100311.00
2023-08-23T20:34:57.216Z,100307.94
2023-08-23T20:40:02.812Z,100313.44
2023-08-23T20:45:08.857Z,100332.75
2023-08-23T20:50:13.948Z,100352.38
2023-08-23T20:55:19.880Z,100352.84
2023-08-23T21:00:25.227Z,100322.09
2023-08-23T21:05:32.130Z,100331.69
2023-08-23T21:10:42.339Z,100341.84
2023-08-23T21:15:49.721Z,100345.59
2023-08-23T21:20:55.097Z,100342.91
2023-08-23T21:26:00.702Z,100341.75
2023-08-23T21:31:06.585Z,100326.44
2023-08-23T21:36:11.826Z,100310.53
2023-08-23T21:41:17.299Z,100306.81
2023-08-23T21:46:23.064Z,100278.50
2023-08-23T21:51:30.651Z,100279.47
2023-08-23T21:56:36.086Z,100325.84
2023-08-23T22:01:41.681Z,100318.84
2023-08-23T22:06:47.364Z,100327.97
2023-08-23T22:11:53.063Z,100353.78
2023-08-23T22:16:59.076Z,100353.78
2023-08-23T22:22:04.745Z,100338.72
2023-08-23T22:27:10.091Z,100354.25
2023-08-23T22:32:15.433Z,100362.22
2023-08-23T22:37:20.722Z,100364.78
2023-08-23T22:42:29.980Z,100401.81
2023-08-23T22:47:36.764Z,100385.91
2023-08-23T22:52:41.920Z,100384.25
2023-08-23T22:57:49.689Z,100395.47
2023-08-23T23:02:55.384Z,100407.75
2023-08-23T23:08:01.035Z,100411.25
2023-08-23T23:13:06.610Z,100419.66
2023-08-23T23:18:12.119Z,100418.16
2023-08-23T23:23:19.100Z,100443.44
2023-08-23T23:28:24.796Z,100459.78
2023-08-23T23:33:31.964Z,100465.97
2023-08-23T23:38:42.669Z,100476.13
2023-08-23T23:43:48.161Z,100503.94
2023-08-23T23:48:54.957Z,100440.94
2023-08-23T23:54:00.481Z,100383.63
2023-08-23T23:59:07.127Z,100398.59
